EDMA

Augsburg Airport

Augsburg, Germany
METAR EDMA 211520Z 34007KT 300V360 CAVOK 25/10 Q1018
Observed Flight Rules
Apr-21 @ 15:20 UTC (21 minutes ago) Visual Flight Rules
Wind Visibility Clouds
340° at 7 knots 10,000+ meters
  • Clear skies
Temperatures Readings
Current 25°C / 77°F
Dewpoint 10°C / 50°F
Humidity 39%
Altimeter 30.06" Hg
Pressure 1018 hPa
Elevation 463
METAR EDMA 211520Z 34007KT 300V360 CAVOK 25/10 Q1018
Observed Flight Rules
Apr-21 @ 15:20 UTC
(21 minutes ago)
VFR
Wind Visibility
340° at 7 knots 10,000+ meters
Clouds
  • Clear skies
Temperature Dewpoint
25°C / 77°F 10°C / 50°F
Humidity Altimeter Pressure
39% 30.06" Hg 1018 hPa